createdAt,value
2023-12-10T00:01:02.489Z,26.23
2023-12-10T00:03:33.490Z,24.10
2023-12-10T00:06:11.079Z,26.15
2023-12-10T00:08:47.270Z,27.23
2023-12-10T00:11:18.096Z,28.15
2023-12-10T00:13:48.510Z,26.48
2023-12-10T00:16:18.970Z,26.55
2023-12-10T00:18:49.497Z,25.75
2023-12-10T00:21:20.051Z,30.35
2023-12-10T00:23:53.184Z,26.30
2023-12-10T00:26:23.624Z,26.45
2023-12-10T00:28:54.133Z,25.95
2023-12-10T00:31:24.683Z,26.58
2023-12-10T00:33:55.249Z,25.13
2023-12-10T00:36:25.810Z,27.55
2023-12-10T00:39:00.955Z,26.70
2023-12-10T00:41:31.627Z,29.92
2023-12-10T00:44:02.136Z,29.92
2023-12-10T00:46:32.507Z,35.33
2023-12-10T00:49:03.108Z,41.10
2023-12-10T00:51:33.723Z,37.03
2023-12-10T00:54:07.869Z,31.92
2023-12-10T00:56:38.678Z,34.22
2023-12-10T00:59:09.085Z,25.63
2023-12-10T01:01:39.660Z,27.27
2023-12-10T01:04:10.401Z,27.75
2023-12-10T01:06:43.349Z,29.23
2023-12-10T01:09:16.686Z,27.65
2023-12-10T01:11:47.195Z,28.65
2023-12-10T01:14:18.846Z,32.58
2023-12-10T01:16:50.170Z,36.17
2023-12-10T01:19:21.521Z,39.17
2023-12-10T01:21:52.182Z,35.10
2023-12-10T01:24:25.378Z,37.60
2023-12-10T01:26:55.836Z,40.83
2023-12-10T01:29:27.245Z,45.33
2023-12-10T01:31:58.328Z,48.15
2023-12-10T01:34:28.901Z,44.30
2023-12-10T01:36:59.418Z,42.80
2023-12-10T01:39:32.947Z,39.95
2023-12-10T01:42:03.901Z,38.25
2023-12-10T01:44:34.846Z,39.80
2023-12-10T01:47:06.479Z,39.05
2023-12-10T01:49:37.220Z,33.42
2023-12-10T01:52:08.545Z,34.00
2023-12-10T01:54:41.675Z,33.42
2023-12-10T01:57:13.192Z,35.80
2023-12-10T01:59:43.602Z,36.15
2023-12-10T02:02:15.221Z,35.47
2023-12-10T02:04:46.454Z,35.45
2023-12-10T02:07:17.147Z,37.70
2023-12-10T02:09:50.297Z,35.97
2023-12-10T02:12:23.310Z,36.78
2023-12-10T02:14:53.947Z,39.07
2023-12-10T02:17:24.491Z,41.20
2023-12-10T02:19:54.962Z,46.95
2023-12-10T02:22:26.918Z,52.67
2023-12-10T02:25:06.155Z,51.70
2023-12-10T02:27:39.515Z,47.00
2023-12-10T02:30:11.678Z,43.38
2023-12-10T02:32:42.791Z,36.38
2023-12-10T02:35:13.610Z,36.10
2023-12-10T02:37:44.053Z,37.03
2023-12-10T02:40:15.473Z,39.42
2023-12-10T02:42:48.960Z,44.72
2023-12-10T02:45:20.640Z,42.45
2023-12-10T02:47:51.274Z,42.55
2023-12-10T02:50:21.772Z,35.97
2023-12-10T02:52:52.500Z,36.72
2023-12-10T02:55:23.212Z,34.58
2023-12-10T02:57:56.175Z,40.22
2023-12-10T03:00:27.919Z,35.20
2023-12-10T03:02:58.431Z,36.60
2023-12-10T03:05:29.115Z,40.28
2023-12-10T03:07:59.510Z,40.35
2023-12-10T03:10:30.058Z,43.95
2023-12-10T03:13:03.152Z,46.75
2023-12-10T03:15:33.991Z,48.20
2023-12-10T03:18:07.120Z,48.85
2023-12-10T03:20:37.910Z,50.28
2023-12-10T03:23:09.573Z,49.95
2023-12-10T03:25:39.939Z,51.72
2023-12-10T03:28:12.985Z,49.97
2023-12-10T03:30:43.707Z,49.60
2023-12-10T03:33:14.285Z,49.47
2023-12-10T03:35:45.120Z,46.72
2023-12-10T03:38:15.842Z,46.65
2023-12-10T03:40:46.193Z,48.67
2023-12-10T03:43:20.058Z,48.75
2023-12-10T03:48:20.921Z,50.22
2023-12-10T03:50:52.780Z,42.92
2023-12-10T03:53:23.838Z,46.38
2023-12-10T03:55:54.201Z,44.08
2023-12-10T03:58:27.178Z,46.38
2023-12-10T04:00:58.066Z,48.10
2023-12-10T04:03:28.967Z,50.25
2023-12-10T04:05:59.391Z,52.53
2023-12-10T04:08:29.723Z,54.05
2023-12-10T04:11:00.173Z,51.33
2023-12-10T04:13:34.616Z,47.13
2023-12-10T04:16:04.978Z,45.63
2023-12-10T04:18:35.487Z,47.92
2023-12-10T04:21:05.935Z,48.92
2023-12-10T04:23:36.468Z,45.17
2023-12-10T04:26:06.893Z,40.40
2023-12-10T04:28:42.598Z,33.33
2023-12-10T04:31:13.528Z,34.30
2023-12-10T04:33:44.154Z,34.17
2023-12-10T04:36:15.288Z,34.85
2023-12-10T04:38:45.800Z,41.50
2023-12-10T04:41:16.185Z,50.17
2023-12-10T04:43:50.340Z,49.92
2023-12-10T04:46:21.052Z,54.83
2023-12-10T04:48:51.667Z,56.20
2023-12-10T04:51:22.367Z,60.75
2023-12-10T04:53:52.725Z,57.08
2023-12-10T04:56:23.286Z,48.08
2023-12-10T04:58:57.360Z,44.20
2023-12-10T05:01:27.821Z,55.65
2023-12-10T05:03:58.369Z,57.50
2023-12-10T05:06:28.860Z,57.13
2023-12-10T05:08:59.184Z,53.10
2023-12-10T05:11:29.521Z,54.35
2023-12-10T05:14:02.536Z,52.30
2023-12-10T05:16:33.498Z,56.13
2023-12-10T05:19:04.023Z,53.05
2023-12-10T05:21:36.031Z,51.95
2023-12-10T05:24:06.653Z,56.15
2023-12-10T05:26:37.156Z,48.05
2023-12-10T05:29:10.855Z,46.38
2023-12-10T05:31:41.869Z,43.35
2023-12-10T05:34:12.547Z,45.53
2023-12-10T05:36:43.377Z,56.17
2023-12-10T05:39:13.995Z,60.88
2023-12-10T05:41:44.812Z,55.47
2023-12-10T05:44:17.751Z,56.40
2023-12-10T05:46:48.676Z,58.67
2023-12-10T05:49:19.813Z,70.30
2023-12-10T05:51:50.596Z,62.92
2023-12-10T05:54:21.038Z,55.03
2023-12-10T05:56:51.712Z,50.35
2023-12-10T05:59:24.766Z,43.38
2023-12-10T06:01:55.178Z,34.08
2023-12-10T06:04:25.674Z,35.65
2023-12-10T06:06:56.188Z,32.00
2023-12-10T06:09:27.165Z,29.60
2023-12-10T06:11:57.546Z,26.67
2023-12-10T06:14:30.537Z,24.90
2023-12-10T06:17:00.997Z,22.43
2023-12-10T06:19:31.448Z,22.63
2023-12-10T06:22:02.494Z,21.48
2023-12-10T06:24:32.955Z,20.70
2023-12-10T06:27:03.662Z,20.10
2023-12-10T06:29:36.763Z,37.63
2023-12-10T06:32:07.824Z,60.30
2023-12-10T06:34:38.545Z,19.58
2023-12-10T06:37:09.289Z,23.67
2023-12-10T06:39:39.858Z,19.77
2023-12-10T06:42:10.348Z,19.02
2023-12-10T06:44:43.566Z,31.58
2023-12-10T06:47:13.970Z,21.80
2023-12-10T06:49:44.470Z,17.45
2023-12-10T06:52:14.925Z,18.30
2023-12-10T06:54:45.382Z,21.65
2023-12-10T06:57:15.849Z,16.58
2023-12-10T06:59:49.079Z,16.33
2023-12-10T07:02:19.950Z,15.05
2023-12-10T07:04:50.338Z,18.42
2023-12-10T07:07:21.290Z,19.52
2023-12-10T07:09:52.117Z,32.35
2023-12-10T07:12:22.521Z,21.65
2023-12-10T07:14:55.504Z,18.42
2023-12-10T07:17:25.953Z,23.30
2023-12-10T07:19:56.664Z,19.70
2023-12-10T07:22:28.882Z,17.40
2023-12-10T07:25:00.288Z,15.77
2023-12-10T07:27:30.926Z,26.80
2023-12-10T07:30:09.206Z,82.20
2023-12-10T07:32:39.664Z,20.40
2023-12-10T07:35:10.499Z,14.68
2023-12-10T07:37:41.247Z,14.65
2023-12-10T07:40:12.819Z,15.57
2023-12-10T07:42:43.588Z,13.93
2023-12-10T07:45:17.681Z,13.38
2023-12-10T07:47:48.674Z,11.82
2023-12-10T07:50:19.599Z,12.93
2023-12-10T07:52:49.944Z,14.85
2023-12-10T07:55:20.706Z,12.55
2023-12-10T07:57:51.672Z,14.07
2023-12-10T08:00:25.609Z,15.10
2023-12-10T08:02:56.378Z,20.08
2023-12-10T08:05:26.885Z,16.92
2023-12-10T08:07:59.664Z,17.48
2023-12-10T08:10:30.240Z,17.08
2023-12-10T08:13:00.744Z,18.85
2023-12-10T08:15:34.661Z,14.35
2023-12-10T08:18:05.384Z,21.00
2023-12-10T08:20:36.080Z,17.48
2023-12-10T08:23:06.478Z,20.30
2023-12-10T08:25:37.439Z,15.70
2023-12-10T08:28:08.204Z,15.80
2023-12-10T08:30:42.047Z,17.05
2023-12-10T08:35:42.955Z,19.48
2023-12-10T08:38:13.346Z,17.73
2023-12-10T08:40:43.741Z,18.35
2023-12-10T08:43:14.150Z,15.68
2023-12-10T08:45:47.657Z,14.68
2023-12-10T08:48:18.493Z,16.23
2023-12-10T08:50:49.006Z,14.98
2023-12-10T08:53:19.384Z,17.02
2023-12-10T08:55:50.180Z,26.88
2023-12-10T08:58:20.933Z,83.38
2023-12-10T09:00:54.746Z,23.50
2023-12-10T09:03:25.870Z,16.85
2023-12-10T09:05:56.304Z,16.02
2023-12-10T09:08:27.572Z,17.23
2023-12-10T09:10:58.609Z,54.72
2023-12-10T09:13:28.989Z,14.75
2023-12-10T09:16:02.015Z,19.05
2023-12-10T09:18:32.584Z,20.05
2023-12-10T09:21:03.116Z,51.40
2023-12-10T09:23:34.625Z,16.67
2023-12-10T09:26:05.064Z,14.00
2023-12-10T09:28:35.702Z,22.27
2023-12-10T09:31:09.009Z,15.20
2023-12-10T09:33:42.021Z,45.88
2023-12-10T09:36:14.529Z,17.23
2023-12-10T09:38:45.290Z,22.60
2023-12-10T09:41:15.690Z,16.23
2023-12-10T09:43:46.081Z,27.35
2023-12-10T09:46:19.509Z,19.67
2023-12-10T09:48:51.727Z,18.90
2023-12-10T09:51:22.181Z,19.90
2023-12-10T09:53:52.618Z,69.88
2023-12-10T09:56:23.069Z,55.45
2023-12-10T09:58:53.489Z,72.03
2023-12-10T10:01:29.578Z,27.15
2023-12-10T10:04:01.155Z,24.92
2023-12-10T10:06:31.938Z,156.95
2023-12-10T10:09:03.552Z,29.52
2023-12-10T10:11:33.989Z,45.13
2023-12-10T10:14:04.632Z,92.75
2023-12-10T10:16:38.206Z,97.18
2023-12-10T10:19:08.716Z,35.85
2023-12-10T10:21:39.241Z,46.10
2023-12-10T10:24:10.328Z,89.25
2023-12-10T10:26:43.063Z,109.32
2023-12-10T10:29:13.483Z,142.82
2023-12-10T10:31:50.707Z,236.68
2023-12-10T10:34:21.374Z,140.18
2023-12-10T10:36:53.543Z,249.88
2023-12-10T10:39:25.731Z,31.17
2023-12-10T10:41:56.618Z,32.25
2023-12-10T10:44:27.025Z,87.97
2023-12-10T10:47:01.202Z,71.50
2023-12-10T10:49:32.445Z,67.65
2023-12-10T10:52:05.294Z,44.85
2023-12-10T10:54:37.613Z,49.38
2023-12-10T10:57:08.750Z,36.63
2023-12-10T10:59:39.832Z,29.42
2023-12-10T11:02:13.432Z,34.85
2023-12-10T11:04:45.287Z,34.60
2023-12-10T11:07:18.940Z,34.67
2023-12-10T11:10:00.812Z,32.63
2023-12-10T11:12:50.574Z,58.17
2023-12-10T11:15:32.665Z,38.40
2023-12-10T11:18:10.770Z,32.97
2023-12-10T11:20:45.289Z,35.63
2023-12-10T11:23:20.131Z,30.63
2023-12-10T11:25:52.968Z,33.13
2023-12-10T11:28:25.631Z,37.10
2023-12-10T11:30:57.710Z,33.38
2023-12-10T11:33:31.766Z,36.58
2023-12-10T11:36:32.807Z,31.60
2023-12-10T11:38:54.682Z,30.27
2023-12-10T11:41:26.611Z,54.47
2023-12-10T11:43:57.319Z,36.97
2023-12-10T11:46:34.725Z,37.85
2023-12-10T11:49:11.576Z,60.95
2023-12-10T11:51:42.931Z,32.08
2023-12-10T11:54:13.741Z,61.05
2023-12-10T11:56:44.364Z,66.05
2023-12-10T11:59:14.774Z,50.45
2023-12-10T12:01:45.221Z,32.90
2023-12-10T12:04:19.047Z,33.15
2023-12-10T12:09:22.455Z,52.50
2023-12-10T12:11:53.304Z,39.50
2023-12-10T12:14:24.573Z,44.22
2023-12-10T12:16:55.112Z,36.33
2023-12-10T12:19:31.944Z,34.05
2023-12-10T12:22:03.354Z,37.85
2023-12-10T12:24:33.963Z,31.63
2023-12-10T12:27:04.461Z,30.60
2023-12-10T12:29:34.819Z,31.30
2023-12-10T12:32:19.556Z,34.20
2023-12-10T12:34:59.315Z,28.92
2023-12-10T12:37:30.108Z,34.65
2023-12-10T12:40:04.107Z,48.83
2023-12-10T12:42:35.682Z,32.15
2023-12-10T12:45:06.813Z,33.35
2023-12-10T12:47:37.349Z,121.47
2023-12-10T12:50:11.187Z,134.95
2023-12-10T12:52:46.890Z,45.35
2023-12-10T12:55:17.434Z,82.97
2023-12-10T12:57:48.299Z,122.07
2023-12-10T13:00:19.516Z,69.25
2023-12-10T13:02:49.959Z,46.42
2023-12-10T13:05:23.004Z,57.42
2023-12-10T13:07:53.427Z,33.28
2023-12-10T13:10:23.890Z,40.35
2023-12-10T13:12:54.333Z,38.05
2023-12-10T13:15:25.941Z,62.53
2023-12-10T13:17:56.342Z,83.03
2023-12-10T13:20:29.423Z,45.45
2023-12-10T13:22:59.853Z,38.10
2023-12-10T13:25:30.300Z,42.40
2023-12-10T13:28:00.725Z,80.40
2023-12-10T13:30:31.382Z,93.57
2023-12-10T13:33:01.902Z,40.17
2023-12-10T13:35:34.945Z,38.88
2023-12-10T13:38:03.424Z,40.00
2023-12-10T13:40:33.762Z,42.50
2023-12-10T13:43:04.351Z,57.28
2023-12-10T13:45:35.065Z,45.55
2023-12-10T13:48:05.581Z,91.45
2023-12-10T13:50:38.603Z,53.08
2023-12-10T13:53:09.194Z,61.90
2023-12-10T13:55:39.879Z,104.35
2023-12-10T13:58:10.554Z,76.05
2023-12-10T14:00:42.913Z,34.95
2023-12-10T14:03:13.777Z,37.03
2023-12-10T14:05:46.859Z,40.88
2023-12-10T14:08:17.342Z,38.53
2023-12-10T14:10:47.756Z,60.80
2023-12-10T14:13:18.152Z,49.22
2023-12-10T14:15:48.828Z,34.50
2023-12-10T14:18:19.277Z,48.47
2023-12-10T14:20:52.433Z,51.00
2023-12-10T14:23:22.848Z,36.03
2023-12-10T14:25:53.384Z,29.65
2023-12-10T14:28:23.788Z,33.15
2023-12-10T14:30:54.316Z,45.83
2023-12-10T14:33:24.973Z,52.28
2023-12-10T14:35:58.148Z,40.08
2023-12-10T14:38:29.462Z,44.17
2023-12-10T14:40:59.896Z,40.75
2023-12-10T14:43:30.350Z,37.80
2023-12-10T14:46:01.042Z,34.92
2023-12-10T14:48:31.524Z,36.78
2023-12-10T14:51:06.296Z,35.80
2023-12-10T14:53:36.867Z,35.15
2023-12-10T14:56:10.353Z,123.10
2023-12-10T14:58:40.759Z,141.65
2023-12-10T15:01:11.385Z,100.32
2023-12-10T15:03:41.990Z,75.85
2023-12-10T15:06:15.132Z,53.40
2023-12-10T15:08:45.621Z,46.70
2023-12-10T15:11:16.211Z,53.38
2023-12-10T15:13:47.265Z,36.55
2023-12-10T15:16:23.663Z,61.55
2023-12-10T15:18:55.194Z,132.98
2023-12-10T15:21:30.157Z,85.47
2023-12-10T15:24:01.964Z,83.00
2023-12-10T15:26:37.275Z,51.58
2023-12-10T15:29:08.650Z,62.95
2023-12-10T15:31:39.965Z,64.20
2023-12-10T15:34:11.699Z,75.95
2023-12-10T15:36:46.324Z,47.65
2023-12-10T15:39:20.208Z,71.80
2023-12-10T15:41:52.461Z,51.33
2023-12-10T15:44:25.367Z,39.83
2023-12-10T15:47:00.440Z,37.13
2023-12-10T15:49:32.722Z,35.13
2023-12-10T15:52:08.966Z,41.93
2023-12-10T15:54:40.453Z,41.25
2023-12-10T15:57:13.390Z,36.50
2023-12-10T15:59:44.712Z,32.53
2023-12-10T16:02:20.173Z,36.88
2023-12-10T16:07:28.565Z,46.67
2023-12-10T16:10:05.315Z,48.45
2023-12-10T16:12:38.834Z,39.30
2023-12-10T16:15:22.695Z,37.65
2023-12-10T16:17:54.142Z,35.35
2023-12-10T16:20:25.567Z,35.28
2023-12-10T16:22:59.472Z,32.30
2023-12-10T16:25:30.966Z,32.70
2023-12-10T16:28:01.522Z,32.63
2023-12-10T16:30:32.075Z,29.92
2023-12-10T16:33:03.894Z,29.35
2023-12-10T16:35:34.427Z,30.38
2023-12-10T16:38:07.476Z,33.47
2023-12-10T16:40:37.872Z,40.80
2023-12-10T16:43:08.575Z,45.42
2023-12-10T16:45:40.273Z,44.50
2023-12-10T16:48:10.974Z,41.05
2023-12-10T16:50:43.283Z,28.15
2023-12-10T16:53:16.652Z,32.60
2023-12-10T16:55:51.396Z,31.08
2023-12-10T16:58:23.271Z,31.38
2023-12-10T17:00:56.719Z,29.20
2023-12-10T17:03:27.362Z,31.77
2023-12-10T17:05:58.022Z,21.67
2023-12-10T17:08:31.743Z,32.80
2023-12-10T17:11:02.139Z,32.83
2023-12-10T17:13:32.547Z,28.27
2023-12-10T17:16:03.014Z,31.48
2023-12-10T17:18:33.498Z,33.17
2023-12-10T17:21:04.079Z,36.20
2023-12-10T17:23:37.092Z,36.67
2023-12-10T17:26:07.987Z,33.50
2023-12-10T17:28:38.488Z,33.60
2023-12-10T17:31:14.833Z,45.72
2023-12-10T17:33:46.360Z,19.90
2023-12-10T17:36:16.958Z,21.20
2023-12-10T17:38:50.048Z,21.55
2023-12-10T17:41:20.423Z,22.88
2023-12-10T17:43:50.843Z,29.52
2023-12-10T17:46:21.196Z,29.52
2023-12-10T17:48:52.593Z,24.73
2023-12-10T17:51:23.212Z,20.27
2023-12-10T17:53:56.886Z,26.92
2023-12-10T17:56:27.403Z,26.67
2023-12-10T17:58:59.217Z,24.98
2023-12-10T18:01:32.244Z,27.88
2023-12-10T18:04:02.770Z,25.58
2023-12-10T18:06:33.250Z,27.90
2023-12-10T18:09:06.773Z,30.90
2023-12-10T18:11:40.190Z,31.70
2023-12-10T18:14:10.652Z,32.13
2023-12-10T18:16:41.165Z,30.35
2023-12-10T18:19:13.024Z,32.72
2023-12-10T18:21:43.584Z,33.22
2023-12-10T18:24:19.639Z,32.05
2023-12-10T18:26:50.435Z,29.02
2023-12-10T18:29:20.923Z,28.38
2023-12-10T18:31:51.478Z,29.67
2023-12-10T18:34:44.376Z,34.42
2023-12-10T18:37:13.074Z,40.65
2023-12-10T18:39:46.232Z,39.72
2023-12-10T18:42:17.096Z,38.95
2023-12-10T18:44:47.546Z,42.33
2023-12-10T18:47:18.069Z,48.58
2023-12-10T18:49:48.592Z,36.83
2023-12-10T18:52:19.052Z,35.53
2023-12-10T18:54:52.390Z,40.42
2023-12-10T18:57:23.521Z,35.17
2023-12-10T18:59:53.957Z,39.58
2023-12-10T19:02:25.096Z,35.65
2023-12-10T19:04:55.674Z,32.85
2023-12-10T19:07:28.240Z,34.30
2023-12-10T19:10:02.777Z,35.75
2023-12-10T19:12:33.208Z,30.73
2023-12-10T19:15:04.626Z,31.67
2023-12-10T19:17:35.539Z,32.03
2023-12-10T19:20:07.748Z,33.42
2023-12-10T19:22:38.221Z,43.28
2023-12-10T19:25:12.059Z,46.55
2023-12-10T19:30:17.509Z,35.08
2023-12-10T19:32:51.096Z,34.70
2023-12-10T19:35:21.517Z,33.70
2023-12-10T19:37:51.979Z,33.33
2023-12-10T19:40:27.683Z,27.42
2023-12-10T19:42:58.271Z,30.63
2023-12-10T19:45:29.332Z,31.67
2023-12-10T19:48:00.454Z,34.30
2023-12-10T19:50:31.126Z,33.78
2023-12-10T19:53:07.634Z,27.30
2023-12-10T19:55:46.107Z,29.17
2023-12-10T19:58:18.950Z,27.55
2023-12-10T20:00:51.211Z,28.33
2023-12-10T20:03:21.847Z,27.35
2023-12-10T20:05:52.306Z,33.55
2023-12-10T20:08:23.141Z,38.33
2023-12-10T20:10:58.129Z,35.63
2023-12-10T20:13:28.733Z,40.72
2023-12-10T20:15:59.848Z,40.38
2023-12-10T20:18:30.846Z,36.47
2023-12-10T20:21:01.329Z,32.92
2023-12-10T20:23:31.786Z,29.95
2023-12-10T20:26:04.921Z,37.13
2023-12-10T20:28:37.062Z,54.53
2023-12-10T20:31:09.837Z,31.25
2023-12-10T20:33:40.540Z,35.17
2023-12-10T20:36:11.844Z,33.67
2023-12-10T20:38:42.644Z,30.42
2023-12-10T20:41:19.209Z,30.90
2023-12-10T20:43:49.996Z,33.70
2023-12-10T20:46:20.419Z,31.77
2023-12-10T20:48:51.266Z,27.80
2023-12-10T20:51:23.363Z,28.88
2023-12-10T20:53:54.261Z,28.20
2023-12-10T20:56:27.386Z,28.33
2023-12-10T20:58:58.003Z,29.67
2023-12-10T21:01:31.156Z,27.75
2023-12-10T21:04:01.677Z,30.33
2023-12-10T21:06:32.338Z,29.88
2023-12-10T21:09:04.252Z,30.13
2023-12-10T21:11:37.810Z,31.90
2023-12-10T21:14:08.382Z,29.85
2023-12-10T21:16:41.431Z,28.00
2023-12-10T21:19:12.579Z,29.48
2023-12-10T21:21:43.358Z,29.50
2023-12-10T21:24:19.068Z,26.60
2023-12-10T21:26:52.221Z,25.20
2023-12-10T21:29:22.674Z,27.77
2023-12-10T21:31:53.558Z,27.13
2023-12-10T21:34:24.128Z,27.23
2023-12-10T21:36:55.134Z,27.58
2023-12-10T21:39:28.531Z,23.45
2023-12-10T21:42:01.578Z,27.65
2023-12-10T21:44:31.928Z,26.60
2023-12-10T21:47:02.331Z,24.35
2023-12-10T21:49:34.884Z,24.83
2023-12-10T21:52:08.354Z,25.90
2023-12-10T21:54:39.341Z,23.52
2023-12-10T21:57:12.428Z,22.60
2023-12-10T21:59:43.046Z,24.15
2023-12-10T22:02:13.409Z,24.15
2023-12-10T22:04:44.067Z,29.42
2023-12-10T22:07:14.574Z,23.67
2023-12-10T22:09:45.070Z,24.30
2023-12-10T22:12:18.071Z,29.48
2023-12-10T22:14:49.328Z,23.80
2023-12-10T22:17:20.572Z,23.77
2023-12-10T22:19:51.462Z,27.48
2023-12-10T22:22:21.911Z,23.95
2023-12-10T22:24:52.396Z,46.20
2023-12-10T22:27:26.136Z,24.98
2023-12-10T22:32:26.556Z,24.80
2023-12-10T22:34:57.101Z,24.27
2023-12-10T22:37:27.675Z,22.27
2023-12-10T22:39:58.305Z,23.77
2023-12-10T22:42:31.330Z,24.73
2023-12-10T22:45:01.869Z,25.67
2023-12-10T22:47:32.566Z,25.60
2023-12-10T22:50:03.448Z,23.38
2023-12-10T22:52:33.918Z,31.55
2023-12-10T22:55:04.574Z,26.25
2023-12-10T22:57:37.626Z,26.23
2023-12-10T23:00:13.413Z,26.80
2023-12-10T23:02:43.761Z,22.98
2023-12-10T23:05:14.312Z,25.45
2023-12-10T23:07:44.744Z,24.40
2023-12-10T23:10:15.798Z,25.35
2023-12-10T23:12:50.182Z,25.40
2023-12-10T23:15:22.370Z,26.05
2023-12-10T23:17:52.814Z,24.40
2023-12-10T23:20:25.771Z,23.77
2023-12-10T23:22:57.977Z,25.73
2023-12-10T23:25:28.393Z,24.33
2023-12-10T23:28:01.486Z,23.17
2023-12-10T23:30:41.740Z,25.98
2023-12-10T23:33:18.665Z,26.55
2023-12-10T23:35:46.572Z,31.70
2023-12-10T23:38:17.906Z,35.05
2023-12-10T23:40:49.142Z,29.08
2023-12-10T23:43:22.194Z,24.60
2023-12-10T23:45:54.360Z,24.00
2023-12-10T23:48:25.194Z,23.02
2023-12-10T23:50:56.869Z,22.85
2023-12-10T23:53:27.206Z,22.35
2023-12-10T23:55:57.655Z,22.63
2023-12-10T23:58:30.858Z,20.70
